Flight Track Log - Related Links

Times and Time Zones

All times are in EDT time to prevent confusion due to time zone crossing. See the SWA1910 flight status page for this flight to view local times or setup timezone preferences in your user account.

Time Position Orientation Groundspeed Altitude Reporting Facility
EDT Latitude Longitude Course Direction KTS MPH feet Rate Location/Type
Mon 02:01:42 PM 26.0728 -80.1411 83° East 161 185 600  Level Miami Center
Mon 02:03:03 PM 26.0808 -80.0628 83° East 223 257 3,800 2,716 Climbing Miami Center
Mon 02:04:10 PM 26.1097 -79.9756 70° East 272 313 7,300 2,831 Climbing Miami Center
Mon 02:04:32 PM 26.1231 -79.9458 63° Northeast 270 311 8,000 3,491 Climbing Miami Center
Mon 02:05:05 PM 26.1344 -79.8978 75° East 283 326 10,500 2,800 Climbing Miami Center
Mon 02:05:32 PM 26.1497 -79.8586 67° East 284 327 10,800 2,000 Climbing Miami Center
Mon 02:06:32 PM 26.1872 -79.7694 65° Northeast 364 419 13,400 2,650 Climbing Miami Center
Mon 02:07:32 PM 26.2494 -79.6806 52° Northeast 364 419 16,100 2,900 Climbing Miami Center
Mon 02:08:32 PM 26.3164 -79.5731 55° Northeast 372 428 19,200 2,750 Climbing Miami Center
Mon 02:09:32 PM 26.3742 -79.4842 54° Northeast 391 450 21,600 2,400 Climbing Miami Center
Mon 02:10:32 PM 26.4536 -79.3675 53° Northeast 412 474 24,000 2,050 Climbing Miami Center
Mon 02:11:32 PM 26.5181 -79.2692 54° Northeast 426 490 25,700 1,650 Climbing Miami Center
Mon 02:12:32 PM 26.6278 -79.1992 30° Northeast 433 498 27,300 1,650 Climbing Miami Center
Mon 02:13:32 PM 26.7494 -79.1644 14° North 428 493 29,000 1,750 Climbing Miami Center
Mon 02:14:32 PM 26.8753 -79.1228 16° North 443 510 30,800 2,100 Climbing Miami Center
Mon 02:15:32 PM 26.9872 -79.0572 28° Northeast 455 524 33,200 2,050 Climbing Miami Center
Mon 02:16:32 PM 27.1114 -78.9825 28° Northeast 449 517 34,900 1,500 Climbing Miami Center
Mon 02:17:32 PM 27.2231 -78.9169 28° Northeast 454 522 36,200 1,050 Climbing Miami Center
Mon 02:18:32 PM 27.3431 -78.8511 26° Northeast 459 528 37,000 400 Climbing Miami Center
Mon 02:19:32 PM 27.4478 -78.8178 16° North 448 516 37,000  Level Miami Center
Mon 02:20:32 PM 27.5714 -78.7894 11° North 440 506 37,000 150 Level Miami Center
Mon 02:21:32 PM 27.7056 -78.7636 10° North 433 498 37,300 700 Climbing Miami Center
Mon 02:22:32 PM 27.8267 -78.7492 North 433 498 38,400 850 Climbing Miami Center
Mon 02:23:32 PM 27.9461 -78.7347 North 433 498 39,000 300 Climbing Miami Center
Mon 02:24:32 PM 28.0653 -78.7203 North 433 498 39,000  Level Miami Center
Mon 02:25:32 PM 28.1906 -78.7058 North 433 498 39,000  Level Miami Center
Mon 02:26:32 PM 28.3119 -78.6889 North 433 498 39,000  Level Miami Center
Mon 02:27:32 PM 28.4311 -78.6767 North 438 504 39,000  Level Miami Center
Mon 02:28:32 PM 28.5544 -78.6597 North 438 504 39,000  Level Miami Center
Mon 02:29:32 PM 28.6756 -78.6428 North 438 504 39,000  Level Miami Center
Mon 02:30:32 PM 28.7989 -78.6281 North 438 504 39,000  Level Miami Center
Mon 02:31:32 PM 28.9181 -78.6158 North 443 510 39,000  Level Miami Center
Mon 02:32:32 PM 29.0350 -78.6011 North 433 498 39,000  Level Miami Center
Mon 02:33:32 PM 29.1583 -78.5864 North 433 498 39,000  Level Miami Center
Mon 02:34:32 PM 29.2817 -78.5717 North 428 493 39,000  Level Miami Center
Mon 02:35:32 PM 29.3967 -78.5544 North 433 498 39,000  Level Miami Center
Mon 02:36:32 PM 29.5156 -78.5394 North 422 486 39,000  Level Miami Center
Mon 02:37:32 PM 29.6325 -78.5247 North 422 486 39,000  Level Miami Center
Mon 02:38:28 PM 29.7336 -78.4992 12° North 422 486 39,000  Level Jacksonville Center
Mon 02:39:28 PM 29.8503 -78.4914 North 372 428 39,000  Level Jacksonville Center
Mon 02:40:28 PM 29.9603 -78.4722 North 389 448 39,000  Level Jacksonville Center
Mon 02:41:28 PM 30.0767 -78.4572 North 399 459 39,000  Level Jacksonville Center
Mon 02:42:28 PM 30.1975 -78.4492 North 415 478 39,000  Level Jacksonville Center
Mon 02:43:28 PM 30.3117 -78.4294 North 410 472 39,000  Level Jacksonville Center
Mon 02:44:28 PM 30.4175 -78.4172 North 404 465 39,000  Level Jacksonville Center
Mon 02:45:28 PM 30.5381 -78.4019 North 409 471 39,000  Level Jacksonville Center
Mon 02:46:28 PM 30.6503 -78.3869 North 409 471 39,000  Level Jacksonville Center
Mon 02:47:28 PM 30.7708 -78.3717 North 414 476 39,000  Level Jacksonville Center
Mon 02:48:28 PM 30.8828 -78.3542 North 414 476 39,000  Level Jacksonville Center
Mon 02:49:28 PM 31.0075 -78.3386 North 424 488 39,000  Level Jacksonville Center
Mon 02:50:28 PM 31.1239 -78.3233 North 426 490 39,000  Level Jacksonville Center
Mon 02:51:28 PM 31.2464 -78.3028 North 429 494 39,000  Level Jacksonville Center
Mon 02:52:28 PM 31.3628 -78.2922 North 429 494 39,000  Level Jacksonville Center
Mon 02:53:28 PM 31.4814 -78.2767 North 424 488 39,000  Level Jacksonville Center
Mon 02:54:28 PM 31.5869 -78.2567 North 424 488 39,000  Level Jacksonville Center
Mon 02:55:28 PM 31.7056 -78.2433 North 424 488 39,000  Level Jacksonville Center
Mon 02:56:28 PM 31.8239 -78.2253 North 424 488 39,000  Level Jacksonville Center
Mon 02:57:28 PM 31.9400 -78.2047 North 424 488 39,000  Level Jacksonville Center
Mon 02:58:28 PM 32.0561 -78.1889 North 424 488 39,000  Level Jacksonville Center
Mon 02:59:28 PM 32.1725 -78.1756 North 424 488 39,000  Level Jacksonville Center
Mon 03:00:28 PM 32.2889 -78.1622 North 424 488 39,000  Level Jacksonville Center
Mon 03:01:28 PM 32.4053 -78.1439 North 424 488 39,000  Level Jacksonville Center
Mon 03:02:28 PM 32.5236 -78.1278 North 424 488 39,000  Level Jacksonville Center
Mon 03:03:28 PM 32.6442 -78.1167 North 424 488 39,000  Level Jacksonville Center
Mon 03:04:28 PM 32.7603 -78.0956 North 424 488 39,000  Level Jacksonville Center
Mon 03:05:28 PM 32.8808 -78.0792 North 424 488 39,000  Level Jacksonville Center
Mon 03:06:28 PM 32.9992 -78.0631 North 424 488 39,000  Level Jacksonville Center
Mon 03:07:28 PM 33.1175 -78.0492 North 424 488 39,000  Level Jacksonville Center
Mon 03:08:28 PM 33.2317 -78.0331 North 419 482 39,000  Level Jacksonville Center
Mon 03:09:28 PM 33.3478 -78.0167 North 419 482 39,000  Level Jacksonville Center
Mon 03:10:37 PM 33.4906 -77.9969 North 401 461 39,000  Level Washington Center
Mon 03:11:37 PM 33.5931 -77.9825 North 393 452 39,000  Level Washington Center
Mon 03:12:37 PM 33.7144 -77.9658 North 402 463 39,000  Level Washington Center
Mon 03:13:37 PM 33.8272 -77.9492 North 408 470 39,000  Level Washington Center
Mon 03:14:37 PM 33.9444 -77.9350 North 408 470 39,000  Level Washington Center
Mon 03:15:37 PM 34.0553 -77.9181 North 408 470 39,000  Level Washington Center
Mon 03:16:37 PM 34.1642 -77.9011 North 408 470 39,000  Level Washington Center
Mon 03:17:37 PM 34.2750 -77.8867 North 408 470 39,000  Level Washington Center
Mon 03:18:37 PM 34.3919 -77.8772 North 408 470 39,000  Level Washington Center
Mon 03:19:37 PM 34.5047 -77.8753 North 403 464 39,000  Level Washington Center
Mon 03:20:37 PM 34.6175 -77.8733 North 403 464 39,000  Level Washington Center
Mon 03:21:38 PM 34.7303 -77.8714 North 403 464 39,000  Level Washington Center
Mon 03:22:37 PM 34.8303 -77.8692 North 403 464 39,000  Level Washington Center
Mon 03:23:37 PM 34.9453 -77.8650 North 403 464 39,000  Level Washington Center
Mon 03:24:38 PM 35.0600 -77.8631 North 403 464 39,000  Level Washington Center
Mon 03:25:37 PM 35.1728 -77.8611 North 403 464 39,000  Level Washington Center
Mon 03:26:37 PM 35.2894 -77.8619 360° North 403 464 39,000  Level Washington Center
Mon 03:27:38 PM 35.4044 -77.8575 North 403 464 39,000  Level Washington Center
Mon 03:28:37 PM 35.5211 -77.8583 360° North 403 464 39,000  Level Washington Center
Mon 03:29:37 PM 35.6339 -77.8536 North 403 464 39,000  Level Washington Center
Mon 03:30:38 PM 35.7528 -77.8519 North 403 464 39,000  Level Washington Center
Mon 03:31:37 PM 35.8697 -77.8528 360° North 403 464 39,000  Level Washington Center
Mon 03:32:37 PM 35.9825 -77.8508 North 408 470 39,000  Level Washington Center
Mon 03:33:37 PM 36.0972 -77.8489 North 408 470 39,000  Level Washington Center
Mon 03:34:37 PM 36.2119 -77.8472 North 403 464 39,000  Level Washington Center
Mon 03:35:37 PM 36.3267 -77.8478 360° North 403 464 39,000  Level Washington Center
Mon 03:36:38 PM 36.4458 -77.8461 North 396 456 39,000  Level Washington Center
Mon 03:37:37 PM 36.5583 -77.8442 North 396 456 39,000  Level Washington Center
Mon 03:38:37 PM 36.6733 -77.8422 North 401 461 39,000  Level Washington Center
Mon 03:39:37 PM 36.7881 -77.8431 360° North 401 461 39,000  Level Washington Center
Mon 03:40:37 PM 36.8986 -77.8386 North 401 461 39,000  Level Washington Center
Mon 03:41:37 PM 37.0114 -77.8367 North 401 461 39,000  Level Washington Center
Mon 03:42:37 PM 37.1261 -77.8347 North 401 461 39,000  Level Washington Center
Mon 03:43:37 PM 37.2408 -77.8356 360° North 401 461 39,000  Level Washington Center
Mon 03:44:38 PM 37.3556 -77.8336 North 401 461 39,000  Level Washington Center
Mon 03:45:38 PM 37.4703 -77.8292 North 401 461 39,000  Level Washington Center
Mon 03:46:38 PM 37.5828 -77.8428 355° North 401 461 39,000  Level Washington Center
Mon 03:47:37 PM 37.6928 -77.8750 347° North 401 461 39,000  Level Washington Center
Mon 03:48:37 PM 37.7986 -77.9044 348° North 406 467 39,000  Level Washington Center
Mon 03:49:38 PM 37.9083 -77.9369 347° North 406 467 39,000  Level Washington Center
Mon 03:50:38 PM 38.0203 -77.9692 347° North 406 467 39,000  Level Washington Center
Mon 03:51:38 PM 38.1283 -77.9992 348° North 406 467 39,000  Level Washington Center
Mon 03:52:38 PM 38.2381 -78.0292 348° North 406 467 39,000  Level Washington Center
Mon 03:53:37 PM 38.3481 -78.0617 347° North 406 467 39,000  Level Washington Center
Mon 03:54:37 PM 38.4558 -78.0919 348° North 406 467 39,000  Level Washington Center
Mon 03:55:37 PM 38.5636 -78.1247 347° North 406 467 39,000  Level Washington Center
Mon 03:56:38 PM 38.6733 -78.1578 347° North 406 467 39,000  Level Washington Center
Mon 03:57:38 PM 38.7853 -78.1883 348° North 406 467 39,000  Level Washington Center
Mon 03:58:38 PM 38.8972 -78.2136 350° North 406 467 39,000  Level Washington Center
Mon 03:59:37 PM 39.0097 -78.2231 356° North 411 473 39,000  Level Washington Center
Mon 04:00:38 PM 39.1242 -78.2350 355° North 411 473 39,000  Level Washington Center
Mon 04:02:32 PM 39.3325 -78.2592 355° North 415 478 39,000  Level Cleveland Center
Mon 04:03:32 PM 39.4411 -78.2689 356° North 405 466 39,000 -450 Level Cleveland Center
Mon 04:04:32 PM 39.5539 -78.2811 355° North 405 466 38,100 -1,700 Descending Cleveland Center
Mon 04:05:32 PM 39.6647 -78.2936 355° North 405 466 35,600 -2,400 Descending Cleveland Center
Mon 04:06:32 PM 39.7858 -78.3056 356° North 405 466 33,300 -1,289 Descending Cleveland Center
Mon 04:07:33 PM 39.8903 -78.3131 357° North 412 474 33,000 -500 Descending Cleveland Center
Mon 04:08:32 PM 39.9989 -78.3256 355° North 407 468 32,300 -504 Descending Cleveland Center
Mon 04:09:32 PM 40.1117 -78.3381 355° North 407 468 32,000 -150 Descending Cleveland Center
Mon 04:10:32 PM 40.2225 -78.3506 355° North 407 468 32,000  Level Cleveland Center
Mon 04:11:32 PM 40.3353 -78.3606 356° North 407 468 32,000 -100 Level Cleveland Center
Mon 04:12:32 PM 40.4461 -78.3733 355° North 407 468 31,800 -500 Descending Cleveland Center
Mon 04:13:32 PM 40.5608 -78.3858 355° North 407 468 31,000 -450 Descending Cleveland Center
Mon 04:14:32 PM 40.6800 -78.3983 355° North 413 475 30,900 -550 Descending Cleveland Center
Mon 04:15:32 PM 40.7928 -78.4108 355° North 413 475 29,900 -1,000 Descending Cleveland Center
Mon 04:16:32 PM 40.9267 -78.4258 355° North 418 481 28,900 -1,050 Descending Cleveland Center
Mon 04:17:32 PM 41.0414 -78.4386 355° North 423 487 27,800 -1,050 Descending Cleveland Center
Mon 04:18:32 PM 41.1542 -78.4486 356° North 423 487 26,800 -1,000 Descending Cleveland Center
Mon 04:19:32 PM 41.2669 -78.4614 355° North 418 481 25,800 -1,000 Descending Cleveland Center
Mon 04:20:32 PM 41.3800 -78.4744 355° North 408 470 24,800 -900 Descending Cleveland Center
Mon 04:21:32 PM 41.4864 -78.4819 357° North 394 453 24,000 -700 Descending Cleveland Center
Mon 04:22:32 PM 41.5928 -78.4953 355° North 384 442 23,400 -800 Descending Cleveland Center
Mon 04:23:32 PM 41.7014 -78.5083 355° North 384 442 22,400 -700 Descending Cleveland Center
Mon 04:24:32 PM 41.8061 -78.5217 355° North 389 448 22,000 -500 Descending Cleveland Center
Mon 04:25:32 PM 41.9083 -78.5325 355° North 384 442 21,400 -1,300 Descending Cleveland Center
Mon 04:26:32 PM 42.0150 -78.5431 356° North 378 435 19,400 -2,100 Descending Cleveland Center
Mon 04:27:32 PM 42.1172 -78.5536 356° North 373 429 17,200 -1,850 Descending Cleveland Center
Mon 04:28:32 PM 42.2050 -78.5650 355° North 360 414 15,700 -1,350 Descending Cleveland Center
Mon 04:29:32 PM 42.2906 -78.5761 355° North 335 386 14,500 -1,250 Descending Cleveland Center
Mon 04:30:32 PM 42.3783 -78.5819 357° North 322 371 13,200 -1,300 Descending Cleveland Center
Mon 04:31:32 PM 42.4661 -78.5931 355° North 317 365 11,900 -1,350 Descending Cleveland Center
Mon 04:32:32 PM 42.5536 -78.6017 356° North 311 358 10,500 -1,550 Descending Cleveland Center
Mon 04:33:32 PM 42.6478 -78.6158 354° North 313 360 8,800 -1,550 Descending Cleveland Center
Mon 04:34:32 PM 42.7214 -78.6586 337° Northwest 283 326 7,400 -1,488 Descending Cleveland Center
Mon 04:35:33 PM 42.7644 -78.7392 306° West 266 306 5,800 -1,750 Descending Cleveland Center
Mon 04:36:32 PM 42.8011 -78.8203 302° West 278 320 3,900 -1,714 Descending Cleveland Center
Mon 04:37:32 PM 42.8581 -78.8725 326° Northwest 270 311 2,400 -857 Descending Cleveland Center
Mon 04:38:31 PM 42.8833 -78.8000 65° Northeast 154 177 2,200 -584 Descending Buffalo TRACON
Mon 04:39:25 PM 42.9167 -78.7667 36° Northeast 125 144 1,300 -1,000 Descending Buffalo TRACON
Mon 04:41:00 PM 42.9333 -78.7167 289° West  Level FlightAware Approximate
Mon 04:48:00 PM 42.9404 -78.7306 289° West  Level Estimated

Login

Don't have an account? Register now (free) for customized features, flight alerts, and more!